createdAt,value
2019-02-23T00:02:12.703Z,86.20
2019-02-23T00:04:41.091Z,86.20
2019-02-23T00:07:09.454Z,86.20
2019-02-23T00:09:38.001Z,86.30
2019-02-23T00:12:06.359Z,86.40
2019-02-23T00:14:34.647Z,86.40
2019-02-23T00:17:03.717Z,86.50
2019-02-23T00:19:32.065Z,86.50
2019-02-23T00:22:00.438Z,86.50
2019-02-23T00:24:28.813Z,86.50
2019-02-23T00:26:57.089Z,86.60
2019-02-23T00:29:25.463Z,86.40
2019-02-23T00:31:53.905Z,86.40
2019-02-23T00:34:22.278Z,86.40
2019-02-23T00:36:50.681Z,86.40
2019-02-23T00:39:19.052Z,86.50
2019-02-23T00:41:47.334Z,86.40
2019-02-23T00:44:15.814Z,86.40
2019-02-23T00:46:44.180Z,86.50
2019-02-23T00:49:12.524Z,86.50
2019-02-23T00:51:40.924Z,86.60
2019-02-23T00:54:09.277Z,86.60
2019-02-23T00:56:37.575Z,86.70
2019-02-23T00:59:05.941Z,86.80
2019-02-23T01:01:34.310Z,86.80
2019-02-23T01:04:02.662Z,86.90
2019-02-23T01:06:31.008Z,87.00
2019-02-23T01:08:59.534Z,87.10
2019-02-23T01:11:27.911Z,87.20
2019-02-23T01:13:56.198Z,87.30
2019-02-23T01:16:24.576Z,87.30
2019-02-23T01:18:52.912Z,87.40
2019-02-23T01:21:21.262Z,87.50
2019-02-23T01:23:49.556Z,87.50
2019-02-23T01:26:17.862Z,87.50
2019-02-23T01:28:47.073Z,87.60
2019-02-23T01:31:15.407Z,87.70
2019-02-23T01:33:43.693Z,87.80
2019-02-23T01:36:12.075Z,87.90
2019-02-23T01:38:40.433Z,87.90
2019-02-23T01:41:08.885Z,88.00
2019-02-23T01:43:37.244Z,88.00
2019-02-23T01:46:05.618Z,88.10
2019-02-23T01:48:33.903Z,88.00
2019-02-23T01:51:02.204Z,88.20
2019-02-23T01:53:30.590Z,88.10
2019-02-23T01:55:58.939Z,88.20
2019-02-23T01:58:27.271Z,88.30
2019-02-23T02:00:55.617Z,88.30
2019-02-23T02:03:24.295Z,88.40
2019-02-23T02:05:52.929Z,88.40
2019-02-23T02:08:21.385Z,88.30
2019-02-23T02:10:49.977Z,88.20
2019-02-23T02:13:18.355Z,88.20
2019-02-23T02:15:46.638Z,88.20
2019-02-23T02:18:15.039Z,88.20
2019-02-23T02:20:43.409Z,88.20
2019-02-23T02:23:11.809Z,88.20
2019-02-23T02:25:40.159Z,88.10
2019-02-23T02:28:08.514Z,88.10
2019-02-23T02:30:36.840Z,88.10
2019-02-23T02:33:05.188Z,88.10
2019-02-23T02:35:33.511Z,88.10
2019-02-23T02:38:02.047Z,88.10
2019-02-23T02:40:30.338Z,88.10
2019-02-23T02:42:58.643Z,88.10
2019-02-23T02:45:27.039Z,88.10
2019-02-23T02:47:55.565Z,88.10
2019-02-23T02:50:24.944Z,88.00
2019-02-23T02:52:53.573Z,88.00
2019-02-23T02:55:21.966Z,88.00
2019-02-23T02:57:50.736Z,88.00
2019-02-23T03:00:19.084Z,88.10
2019-02-23T03:02:47.469Z,88.00
2019-02-23T03:05:15.960Z,88.00
2019-02-23T03:07:44.420Z,87.90
2019-02-23T03:10:12.796Z,88.00
2019-02-23T03:12:41.288Z,87.90
2019-02-23T03:15:09.636Z,88.00
2019-02-23T03:17:37.950Z,87.90
2019-02-23T03:20:07.969Z,87.90
2019-02-23T03:22:36.345Z,87.90
2019-02-23T03:25:05.767Z,87.90
2019-02-23T03:27:34.159Z,87.70
2019-02-23T03:30:02.437Z,87.90
2019-02-23T03:32:30.808Z,87.80
2019-02-23T03:34:59.181Z,87.70
2019-02-23T03:37:27.538Z,87.70
2019-02-23T03:39:55.946Z,87.70
2019-02-23T03:42:24.303Z,87.70
2019-02-23T03:44:52.939Z,87.70
2019-02-23T03:47:21.357Z,87.70
2019-02-23T03:49:49.745Z,87.70
2019-02-23T03:52:18.107Z,87.70
2019-02-23T03:54:46.423Z,87.70
2019-02-23T03:57:14.803Z,87.60
2019-02-23T03:59:43.173Z,88.40
2019-02-23T04:02:11.562Z,87.60
2019-02-23T04:04:39.876Z,87.60
2019-02-23T04:07:08.236Z,87.60
2019-02-23T04:09:36.672Z,87.60
2019-02-23T04:12:05.045Z,87.60
2019-02-23T04:14:33.413Z,87.60
2019-02-23T04:17:02.048Z,87.50
2019-02-23T04:19:30.417Z,87.60
2019-02-23T04:21:58.773Z,87.50
2019-02-23T04:24:27.125Z,87.50
2019-02-23T04:26:55.495Z,87.50
2019-02-23T04:29:23.777Z,87.50
2019-02-23T04:31:52.075Z,87.50
2019-02-23T04:34:20.433Z,87.50
2019-02-23T04:36:48.823Z,87.50
2019-02-23T04:39:17.188Z,87.50
2019-02-23T04:41:45.558Z,87.60
2019-02-23T04:44:14.095Z,87.50
2019-02-23T04:46:42.486Z,87.40
2019-02-23T04:49:10.909Z,87.40
2019-02-23T04:51:39.298Z,87.40
2019-02-23T04:54:07.663Z,87.40
2019-02-23T04:56:36.047Z,87.40
2019-02-23T04:59:04.342Z,87.40
2019-02-23T05:01:32.712Z,87.40
2019-02-23T05:04:00.997Z,87.40
2019-02-23T05:06:29.305Z,87.40
2019-02-23T05:08:57.663Z,87.40
2019-02-23T05:11:26.287Z,87.30
2019-02-23T05:13:54.745Z,87.30
2019-02-23T05:16:23.162Z,87.30
2019-02-23T05:18:51.504Z,87.30
2019-02-23T05:21:26.182Z,87.30
2019-02-23T05:23:49.822Z,87.30
2019-02-23T05:26:18.190Z,87.30
2019-02-23T05:28:46.468Z,87.30
2019-02-23T05:31:14.866Z,87.30
2019-02-23T05:33:43.207Z,87.30
2019-02-23T05:36:11.504Z,87.10
2019-02-23T05:38:40.073Z,87.10
2019-02-23T05:41:08.429Z,87.10
2019-02-23T05:43:36.713Z,87.10
2019-02-23T05:46:05.092Z,87.10
2019-02-23T05:48:33.457Z,87.10
2019-02-23T05:51:01.762Z,87.10
2019-02-23T05:53:30.108Z,87.10
2019-02-23T05:55:58.497Z,87.00
2019-02-23T05:58:26.838Z,87.00
2019-02-23T06:00:55.218Z,86.80
2019-02-23T06:03:23.599Z,86.80
2019-02-23T06:05:51.915Z,86.70
2019-02-23T06:08:20.309Z,86.60
2019-02-23T06:10:48.587Z,86.60
2019-02-23T06:13:16.953Z,86.50
2019-02-23T06:15:45.243Z,86.50
2019-02-23T06:18:13.608Z,86.40
2019-02-23T06:20:41.894Z,86.40
2019-02-23T06:23:10.275Z,86.30
2019-02-23T06:25:38.642Z,86.30
2019-02-23T06:28:07.023Z,86.20
2019-02-23T06:30:35.389Z,86.10
2019-02-23T06:33:03.677Z,85.90
2019-02-23T06:35:32.037Z,85.90
2019-02-23T06:38:00.422Z,85.60
2019-02-23T06:40:28.799Z,85.50
2019-02-23T06:42:57.946Z,85.30
2019-02-23T06:45:26.549Z,85.00
2019-02-23T06:47:54.911Z,84.80
2019-02-23T06:50:23.286Z,84.40
2019-02-23T06:52:51.567Z,84.20
2019-02-23T06:55:19.862Z,83.70
2019-02-23T06:57:48.218Z,83.40
2019-02-23T07:00:16.763Z,83.20
2019-02-23T07:02:45.124Z,82.70
2019-02-23T07:05:13.437Z,82.30
2019-02-23T07:07:41.795Z,81.80
2019-02-23T07:10:14.906Z,81.60
2019-02-23T07:12:43.266Z,81.40
2019-02-23T07:15:11.642Z,81.10
2019-02-23T07:17:40.139Z,80.90
2019-02-23T07:20:10.270Z,80.60
2019-02-23T07:22:38.742Z,80.40
2019-02-23T07:25:08.562Z,80.30
2019-02-23T07:27:36.836Z,80.00
2019-02-23T07:30:08.640Z,79.90
2019-02-23T07:32:36.938Z,79.80
2019-02-23T07:35:06.467Z,79.70
2019-02-23T07:37:34.831Z,79.70
2019-02-23T07:40:03.596Z,79.50
2019-02-23T07:42:32.125Z,79.30
2019-02-23T07:45:00.498Z,79.30
2019-02-23T07:47:28.876Z,79.10
2019-02-23T07:49:57.236Z,78.90
2019-02-23T07:52:26.538Z,78.90
2019-02-23T07:54:55.099Z,79.80
2019-02-23T07:57:23.423Z,79.00
2019-02-23T07:59:51.741Z,79.00
2019-02-23T08:02:20.119Z,79.00
2019-02-23T08:04:48.414Z,79.20
2019-02-23T08:07:16.849Z,79.50
2019-02-23T08:09:45.232Z,79.70
2019-02-23T08:12:13.671Z,79.70
2019-02-23T08:14:42.174Z,79.70
2019-02-23T08:17:10.679Z,79.90
2019-02-23T08:19:39.038Z,79.90
2019-02-23T08:22:07.499Z,80.10
2019-02-23T08:24:35.871Z,80.30
2019-02-23T08:27:04.227Z,80.40
2019-02-23T08:29:32.647Z,80.50
2019-02-23T08:32:00.988Z,80.70
2019-02-23T08:34:30.988Z,80.70
2019-02-23T08:36:59.339Z,80.90
2019-02-23T08:39:27.635Z,80.90
2019-02-23T08:41:56.047Z,81.00
2019-02-23T08:44:24.341Z,81.00
2019-02-23T08:46:52.999Z,81.10
2019-02-23T08:49:21.422Z,81.30
2019-02-23T08:51:49.957Z,81.20
2019-02-23T08:54:18.396Z,81.30
2019-02-23T08:56:46.671Z,81.30
2019-02-23T08:59:15.060Z,81.50
2019-02-23T09:01:43.426Z,81.60
2019-02-23T09:04:11.771Z,81.80
2019-02-23T09:06:40.146Z,81.90
2019-02-23T09:09:08.441Z,82.00
2019-02-23T09:11:36.810Z,82.00
2019-02-23T09:14:05.184Z,82.20
2019-02-23T09:16:33.572Z,81.90
2019-02-23T09:19:01.924Z,80.90
2019-02-23T09:21:30.294Z,80.00
2019-02-23T09:23:58.591Z,78.90
2019-02-23T09:26:27.007Z,77.80
2019-02-23T09:28:55.288Z,77.10
2019-02-23T09:31:23.618Z,76.10
2019-02-23T09:33:51.981Z,75.20
2019-02-23T09:36:20.332Z,74.50
2019-02-23T09:38:48.629Z,73.80
2019-02-23T09:41:16.910Z,73.00
2019-02-23T09:43:45.230Z,72.00
2019-02-23T09:46:13.577Z,71.00
2019-02-23T09:48:42.013Z,69.90
2019-02-23T09:51:10.363Z,69.20
2019-02-23T09:53:38.763Z,68.10
2019-02-23T09:56:07.127Z,68.40
2019-02-23T09:58:35.535Z,66.70
2019-02-23T10:01:03.874Z,65.90
2019-02-23T10:03:32.161Z,64.90
2019-02-23T10:06:00.542Z,65.00
2019-02-23T10:08:28.929Z,63.50
2019-02-23T10:10:57.715Z,62.90
2019-02-23T10:13:26.111Z,62.30
2019-02-23T10:15:54.458Z,61.70
2019-02-23T10:18:22.870Z,61.00
2019-02-23T10:20:51.226Z,60.60
2019-02-23T10:23:22.327Z,60.10
2019-02-23T10:25:49.619Z,59.90
2019-02-23T10:28:17.975Z,59.70
2019-02-23T10:30:46.395Z,59.70
2019-02-23T10:33:14.685Z,59.70
2019-02-23T10:35:43.064Z,59.80
2019-02-23T10:38:11.335Z,59.80
2019-02-23T10:40:39.724Z,59.70
2019-02-23T10:43:08.032Z,59.90
2019-02-23T10:45:36.388Z,59.80
2019-02-23T10:48:04.847Z,60.50
2019-02-23T10:50:33.276Z,59.80
2019-02-23T10:53:01.584Z,59.90
2019-02-23T10:55:29.946Z,59.90
2019-02-23T10:57:58.275Z,60.00
2019-02-23T11:00:26.576Z,59.90
2019-02-23T11:02:55.325Z,60.00
2019-02-23T11:05:23.799Z,60.10
2019-02-23T11:07:52.396Z,60.20
2019-02-23T11:10:21.533Z,60.10
2019-02-23T11:12:49.884Z,63.60
2019-02-23T11:15:19.818Z,62.60
2019-02-23T11:17:48.685Z,61.80
2019-02-23T11:20:17.367Z,61.70
2019-02-23T11:22:45.730Z,61.50
2019-02-23T11:25:14.096Z,61.70
2019-02-23T11:27:42.372Z,62.00
2019-02-23T11:30:15.160Z,62.30
2019-02-23T11:32:43.432Z,62.70
2019-02-23T11:35:17.424Z,63.10
2019-02-23T11:37:45.835Z,63.40
2019-02-23T11:40:15.428Z,63.80
2019-02-23T11:42:43.801Z,64.20
2019-02-23T11:45:12.287Z,64.50
2019-02-23T11:47:40.697Z,65.00
2019-02-23T11:50:10.193Z,65.20
2019-02-23T11:52:39.476Z,65.50
2019-02-23T11:55:08.553Z,65.60
2019-02-23T11:57:36.919Z,66.00
2019-02-23T12:00:08.457Z,66.20
2019-02-23T12:02:36.752Z,66.30
2019-02-23T12:05:05.045Z,66.30
2019-02-23T12:07:33.326Z,66.40
2019-02-23T12:10:01.680Z,66.40
2019-02-23T12:12:29.967Z,66.30
2019-02-23T12:14:58.313Z,66.40
2019-02-23T12:17:26.657Z,66.20
2019-02-23T12:19:55.436Z,67.00
2019-02-23T12:22:23.821Z,66.10
2019-02-23T12:24:52.222Z,66.00
2019-02-23T12:27:20.583Z,66.00
2019-02-23T12:29:48.875Z,66.00
2019-02-23T12:32:17.172Z,66.00
2019-02-23T12:34:45.451Z,65.80
2019-02-23T12:37:13.910Z,65.70
2019-02-23T12:39:42.597Z,65.60
2019-02-23T12:42:10.875Z,65.30
2019-02-23T12:44:39.151Z,65.20
2019-02-23T12:47:07.521Z,65.10
2019-02-23T12:49:35.874Z,65.00
2019-02-23T12:52:04.164Z,64.70
2019-02-23T12:54:32.576Z,64.60
2019-02-23T12:57:00.929Z,64.40
2019-02-23T12:59:29.304Z,64.40
2019-02-23T13:01:57.643Z,64.30
2019-02-23T13:04:26.003Z,64.20
2019-02-23T13:06:54.293Z,64.10
2019-02-23T13:09:25.191Z,64.00
2019-02-23T13:11:59.500Z,63.80
2019-02-23T13:14:40.036Z,63.90
2019-02-23T13:17:17.724Z,63.70
2019-02-23T13:20:09.842Z,63.80
2019-02-23T13:22:41.375Z,63.70
2019-02-23T13:25:16.066Z,63.60
2019-02-23T13:28:10.340Z,63.70
2019-02-23T13:30:59.968Z,63.70
2019-02-23T13:33:31.580Z,63.70
2019-02-23T13:36:21.501Z,63.50
2019-02-23T13:39:11.492Z,63.50
2019-02-23T13:41:58.084Z,63.40
2019-02-23T13:44:35.908Z,63.40
2019-02-23T13:47:13.432Z,63.40
2019-02-23T13:49:45.218Z,63.40
2019-02-23T13:52:26.102Z,63.30
2019-02-23T13:55:14.471Z,63.30
2019-02-23T13:57:48.917Z,63.10
2019-02-23T14:00:40.091Z,63.10
2019-02-23T14:03:23.798Z,63.10
2019-02-23T14:06:07.355Z,62.90
2019-02-23T14:09:04.826Z,62.90
2019-02-23T14:11:36.564Z,62.80
2019-02-23T14:14:24.551Z,62.80
2019-02-23T14:17:01.616Z,63.00
2019-02-23T14:20:04.725Z,62.90
2019-02-23T14:22:52.915Z,62.90
2019-02-23T14:25:24.598Z,62.90
2019-02-23T14:28:11.065Z,62.90
2019-02-23T14:31:00.704Z,63.00
2019-02-23T14:33:53.163Z,62.90
2019-02-23T14:36:42.647Z,62.90
2019-02-23T14:39:26.657Z,63.10
2019-02-23T14:42:01.298Z,63.00
2019-02-23T14:44:41.797Z,63.00
2019-02-23T14:47:15.028Z,63.00
2019-02-23T14:49:50.103Z,62.80
2019-02-23T14:52:38.090Z,62.90
2019-02-23T14:55:09.753Z,62.90
2019-02-23T14:58:05.732Z,62.80
2019-02-23T15:00:53.821Z,62.70
2019-02-23T15:03:27.963Z,62.50
2019-02-23T15:06:11.756Z,62.50
2019-02-23T15:08:48.931Z,62.50
2019-02-23T15:11:32.617Z,62.50
2019-02-23T15:14:12.466Z,62.60
2019-02-23T15:16:58.822Z,62.40
2019-02-23T15:19:36.484Z,62.50
2019-02-23T15:22:11.294Z,62.40
2019-02-23T15:24:48.678Z,62.30
2019-02-23T15:27:23.294Z,62.30
2019-02-23T15:29:55.702Z,62.10
2019-02-23T15:32:59.062Z,61.90
2019-02-23T15:35:54.785Z,61.30
2019-02-23T15:38:44.552Z,60.70
2019-02-23T15:41:37.335Z,59.90
2019-02-23T15:44:09.189Z,59.50
2019-02-23T15:46:41.099Z,59.00
2019-02-23T15:49:29.991Z,58.70
2019-02-23T15:51:59.392Z,58.40
2019-02-23T15:54:29.206Z,57.80
2019-02-23T15:56:57.942Z,57.30
2019-02-23T15:59:26.596Z,56.90
2019-02-23T16:01:55.095Z,56.70
2019-02-23T16:04:23.471Z,56.10
2019-02-23T16:06:51.828Z,56.00
2019-02-23T16:09:20.318Z,55.80
2019-02-23T16:11:48.707Z,55.60
2019-02-23T16:14:17.117Z,55.40
2019-02-23T16:16:47.429Z,55.30
2019-02-23T16:19:15.541Z,55.00
2019-02-23T16:21:43.939Z,54.90
2019-02-23T16:24:12.287Z,54.60
2019-02-23T16:26:40.661Z,54.60
2019-02-23T16:29:09.015Z,54.60
2019-02-23T16:31:37.314Z,54.60
2019-02-23T16:34:07.386Z,54.50
2019-02-23T16:36:35.941Z,54.30
2019-02-23T16:39:07.891Z,53.90
2019-02-23T16:41:36.451Z,53.60
2019-02-23T16:44:05.191Z,53.00
2019-02-23T16:46:33.552Z,52.80
2019-02-23T16:49:01.913Z,52.50
2019-02-23T16:51:30.271Z,52.40
2019-02-23T16:53:58.918Z,52.20
2019-02-23T16:56:27.399Z,52.10
2019-02-23T16:58:55.866Z,51.90
2019-02-23T17:01:24.224Z,51.90
2019-02-23T17:03:52.596Z,51.80
2019-02-23T17:06:20.979Z,51.90
2019-02-23T17:08:49.456Z,52.00
2019-02-23T17:11:17.964Z,52.10
2019-02-23T17:13:46.304Z,52.30
2019-02-23T17:16:14.688Z,52.30
2019-02-23T17:18:43.066Z,52.40
2019-02-23T17:21:11.438Z,52.50
2019-02-23T17:23:39.948Z,52.50
2019-02-23T17:26:08.379Z,52.60
2019-02-23T17:28:36.891Z,52.50
2019-02-23T17:31:05.225Z,52.60
2019-02-23T17:33:33.603Z,52.70
2019-02-23T17:36:02.033Z,52.70
2019-02-23T17:38:30.393Z,52.80
2019-02-23T17:40:59.652Z,52.90
2019-02-23T17:43:28.084Z,53.10
2019-02-23T17:45:56.487Z,53.30
2019-02-23T17:48:24.876Z,53.50
2019-02-23T17:50:53.238Z,53.60
2019-02-23T17:53:21.616Z,54.00
2019-02-23T17:55:49.986Z,54.70
2019-02-23T17:58:18.357Z,55.40
2019-02-23T18:00:46.737Z,56.00
2019-02-23T18:03:15.113Z,56.70
2019-02-23T18:05:43.518Z,57.50
2019-02-23T18:08:11.915Z,58.00
2019-02-23T18:10:40.272Z,58.60
2019-02-23T18:13:08.623Z,59.10
2019-02-23T18:15:36.927Z,59.40
2019-02-23T18:18:06.887Z,59.70
2019-02-23T18:20:35.405Z,59.90
2019-02-23T18:23:03.905Z,60.60
2019-02-23T18:25:32.238Z,61.10
2019-02-23T18:28:00.589Z,61.60
2019-02-23T18:30:28.976Z,61.90
2019-02-23T18:32:57.327Z,62.10
2019-02-23T18:35:25.727Z,62.20
2019-02-23T18:37:54.169Z,62.20
2019-02-23T18:40:22.665Z,62.50
2019-02-23T18:42:50.972Z,62.70
2019-02-23T18:45:19.343Z,63.10
2019-02-23T18:47:47.722Z,63.30
2019-02-23T18:50:16.073Z,63.40
2019-02-23T18:52:44.674Z,63.40
2019-02-23T18:55:13.049Z,63.50
2019-02-23T18:57:41.425Z,63.70
2019-02-23T19:00:11.855Z,63.90
2019-02-23T19:02:40.265Z,64.00
2019-02-23T19:05:11.049Z,64.20
2019-02-23T19:07:39.397Z,64.40
2019-02-23T19:10:14.810Z,64.50
2019-02-23T19:12:43.539Z,64.70
2019-02-23T19:15:13.821Z,64.80
2019-02-23T19:17:42.287Z,65.00
2019-02-23T19:20:13.476Z,65.20
2019-02-23T19:22:42.365Z,65.60
2019-02-23T19:25:12.210Z,65.60
2019-02-23T19:27:40.827Z,65.60
2019-02-23T19:30:15.227Z,66.30
2019-02-23T19:32:43.537Z,65.60
2019-02-23T19:35:12.293Z,65.50
2019-02-23T19:37:41.141Z,64.70
2019-02-23T19:40:09.877Z,65.50
2019-02-23T19:42:38.350Z,65.40
2019-02-23T19:45:09.538Z,65.10
2019-02-23T19:47:40.271Z,65.20
2019-02-23T19:50:20.642Z,65.30
2019-02-23T19:52:49.113Z,65.30
2019-02-23T19:55:17.460Z,65.30
2019-02-23T19:57:45.866Z,65.30
2019-02-23T20:00:14.286Z,65.30
2019-02-23T20:02:43.120Z,65.30
2019-02-23T20:05:11.536Z,65.40
2019-02-23T20:07:40.119Z,65.50
2019-02-23T20:10:09.955Z,65.60
2019-02-23T20:12:38.391Z,66.20
2019-02-23T20:15:10.436Z,65.60
2019-02-23T20:17:39.066Z,65.40
2019-02-23T20:20:08.547Z,65.50
2019-02-23T20:22:36.919Z,65.50
2019-02-23T20:25:07.609Z,65.50
2019-02-23T20:27:36.009Z,65.50
2019-02-23T20:30:09.767Z,65.30
2019-02-23T20:32:38.068Z,65.20
2019-02-23T20:35:08.131Z,65.20
2019-02-23T20:37:36.513Z,65.20
2019-02-23T20:40:07.487Z,65.10
2019-02-23T20:42:35.929Z,65.30
2019-02-23T20:45:06.027Z,65.40
2019-02-23T20:47:34.402Z,65.30
2019-02-23T20:50:03.033Z,65.10
2019-02-23T20:52:31.461Z,64.70
2019-02-23T20:54:59.824Z,64.50
2019-02-23T20:57:28.223Z,64.30
2019-02-23T20:59:56.591Z,64.10
2019-02-23T21:02:25.055Z,63.70
2019-02-23T21:04:53.470Z,63.60
2019-02-23T21:07:21.927Z,63.70
2019-02-23T21:09:50.301Z,63.80
2019-02-23T21:12:18.675Z,63.80
2019-02-23T21:14:47.222Z,63.60
2019-02-23T21:17:15.505Z,63.40
2019-02-23T21:19:43.894Z,63.40
2019-02-23T21:22:12.328Z,63.30
2019-02-23T21:24:40.638Z,63.30
2019-02-23T21:27:13.043Z,63.20
2019-02-23T21:29:39.000Z,63.20
2019-02-23T21:32:07.451Z,63.10
2019-02-23T21:34:35.806Z,63.10
2019-02-23T21:37:04.084Z,63.00
2019-02-23T21:39:32.388Z,62.90
2019-02-23T21:42:00.770Z,62.90
2019-02-23T21:44:29.113Z,62.70
2019-02-23T21:46:57.489Z,62.80
2019-02-23T21:49:25.864Z,62.80
2019-02-23T21:51:54.643Z,62.80
2019-02-23T21:54:23.001Z,62.90
2019-02-23T21:56:51.411Z,62.80
2019-02-23T21:59:19.697Z,62.60
2019-02-23T22:01:48.140Z,62.50
2019-02-23T22:04:16.672Z,63.60
2019-02-23T22:06:45.075Z,62.50
2019-02-23T22:09:13.394Z,62.70
2019-02-23T22:11:41.829Z,62.90
2019-02-23T22:14:10.187Z,63.00
2019-02-23T22:16:38.608Z,63.50
2019-02-23T22:19:07.078Z,63.60
2019-02-23T22:21:35.484Z,63.70
2019-02-23T22:24:03.866Z,63.60
2019-02-23T22:26:32.216Z,63.40
2019-02-23T22:29:00.804Z,63.20
2019-02-23T22:31:29.250Z,63.10
2019-02-23T22:33:57.641Z,63.00
2019-02-23T22:36:26.056Z,62.80
2019-02-23T22:38:54.757Z,62.80
2019-02-23T22:41:23.097Z,62.70
2019-02-23T22:43:51.415Z,62.70
2019-02-23T22:46:19.771Z,62.70
2019-02-23T22:48:48.088Z,62.50
2019-02-23T22:51:16.458Z,62.50
2019-02-23T22:53:44.844Z,62.40
2019-02-23T22:56:13.531Z,62.50
2019-02-23T22:58:41.882Z,62.40
2019-02-23T23:01:10.369Z,62.30
2019-02-23T23:03:38.769Z,62.10
2019-02-23T23:06:07.068Z,62.10
2019-02-23T23:08:35.451Z,62.10
2019-02-23T23:11:03.817Z,61.90
2019-02-23T23:13:32.212Z,61.90
2019-02-23T23:16:00.570Z,61.80
2019-02-23T23:18:28.900Z,61.80
2019-02-23T23:20:57.264Z,61.80
2019-02-23T23:23:25.652Z,61.70
2019-02-23T23:25:53.978Z,61.70
2019-02-23T23:28:22.286Z,61.80
2019-02-23T23:30:50.723Z,61.70
2019-02-23T23:33:19.094Z,61.50
2019-02-23T23:35:47.462Z,61.50
2019-02-23T23:38:15.755Z,61.40
2019-02-23T23:40:44.108Z,61.40
2019-02-23T23:43:12.492Z,61.20
2019-02-23T23:45:40.774Z,61.20
2019-02-23T23:48:09.144Z,61.20
2019-02-23T23:50:37.453Z,61.10
2019-02-23T23:53:05.832Z,61.10
2019-02-23T23:55:34.160Z,61.00
2019-02-23T23:58:02.443Z,60.60
